sensor_id;sensor_type;location;lat;lon;timestamp;pressure;altitude;pressure_sealevel;temperature;humidity
75759;BME280;64371;47.566;19.086;2023-02-22T00:01:17;100414.13;;;7.91;73.00
75759;BME280;64371;47.566;19.086;2023-02-22T00:04:50;100425.13;;;7.83;73.22
75759;BME280;64371;47.566;19.086;2023-02-22T00:07:59;100416.63;;;7.56;73.77
75759;BME280;64371;47.566;19.086;2023-02-22T00:11:08;100410.63;;;7.60;73.97
75759;BME280;64371;47.566;19.086;2023-02-22T00:14:10;100405.91;;;7.57;73.78
75759;BME280;64371;47.566;19.086;2023-02-22T00:17:16;100401.47;;;7.73;73.14
75759;BME280;64371;47.566;19.086;2023-02-22T00:20:27;100410.41;;;7.77;73.60
75759;BME280;64371;47.566;19.086;2023-02-22T00:23:31;100409.91;;;7.75;73.17
75759;BME280;64371;47.566;19.086;2023-02-22T00:26:39;100412.25;;;7.76;73.39
75759;BME280;64371;47.566;19.086;2023-02-22T00:29:45;100403.81;;;7.64;74.20
75759;BME280;64371;47.566;19.086;2023-02-22T00:32:55;100412.66;;;7.43;75.06
75759;BME280;64371;47.566;19.086;2023-02-22T00:36:03;100404.44;;;7.24;75.20
75759;BME280;64371;47.566;19.086;2023-02-22T00:39:10;100416.75;;;7.19;76.01
75759;BME280;64371;47.566;19.086;2023-02-22T00:42:17;100418.88;;;7.27;76.09
75759;BME280;64371;47.566;19.086;2023-02-22T00:45:24;100421.22;;;7.23;76.11
75759;BME280;64371;47.566;19.086;2023-02-22T00:48:27;100431.78;;;7.33;75.84
75759;BME280;64371;47.566;19.086;2023-02-22T00:51:47;100428.84;;;7.30;75.42
75759;BME280;64371;47.566;19.086;2023-02-22T00:55:01;100423.13;;;7.38;75.14
75759;BME280;64371;47.566;19.086;2023-02-22T00:58:04;100422.31;;;7.32;75.10
75759;BME280;64371;47.566;19.086;2023-02-22T01:01:10;100417.94;;;7.48;74.38
75759;BME280;64371;47.566;19.086;2023-02-22T01:04:14;100418.75;;;7.59;74.28
75759;BME280;64371;47.566;19.086;2023-02-22T01:07:19;100414.31;;;7.64;73.82
75759;BME280;64371;47.566;19.086;2023-02-22T01:10:32;100421.69;;;7.72;73.90
75759;BME280;64371;47.566;19.086;2023-02-22T01:13:34;100414.34;;;7.74;73.64
75759;BME280;64371;47.566;19.086;2023-02-22T01:16:37;100420.94;;;7.82;73.31
75759;BME280;64371;47.566;19.086;2023-02-22T01:19:44;100415.44;;;7.93;73.42
75759;BME280;64371;47.566;19.086;2023-02-22T01:23:00;100414.69;;;8.03;72.85
75759;BME280;64371;47.566;19.086;2023-02-22T01:26:08;100419.13;;;8.02;72.68
75759;BME280;64371;47.566;19.086;2023-02-22T01:29:21;100417.56;;;8.12;72.36
75759;BME280;64371;47.566;19.086;2023-02-22T01:32:26;100399.19;;;8.01;72.54
75759;BME280;64371;47.566;19.086;2023-02-22T01:35:38;100412.31;;;8.17;72.38
75759;BME280;64371;47.566;19.086;2023-02-22T01:38:47;100418.09;;;8.19;72.12
75759;BME280;64371;47.566;19.086;2023-02-22T01:41:51;100403.13;;;8.19;72.34
75759;BME280;64371;47.566;19.086;2023-02-22T01:51:56;100400.28;;;8.31;71.87
75759;BME280;64371;47.566;19.086;2023-02-22T01:55:11;100399.75;;;8.34;71.66
75759;BME280;64371;47.566;19.086;2023-02-22T01:58:34;100406.59;;;8.35;71.81
75759;BME280;64371;47.566;19.086;2023-02-22T02:01:41;100396.09;;;8.40;71.53
75759;BME280;64371;47.566;19.086;2023-02-22T02:04:57;100397.41;;;8.37;71.52
75759;BME280;64371;47.566;19.086;2023-02-22T02:08:16;100387.38;;;8.24;71.93
75759;BME280;64371;47.566;19.086;2023-02-22T02:11:25;100396.09;;;8.30;72.05
75759;BME280;64371;47.566;19.086;2023-02-22T02:14:39;100395.03;;;8.26;72.39
75759;BME280;64371;47.566;19.086;2023-02-22T02:17:50;100397.63;;;8.16;72.38
75759;BME280;64371;47.566;19.086;2023-02-22T02:27:53;100396.56;;;8.01;73.04
75759;BME280;64371;47.566;19.086;2023-02-22T02:31:31;100396.28;;;7.93;73.53
75759;BME280;64371;47.566;19.086;2023-02-22T02:41:35;100393.63;;;7.78;73.53
75759;BME280;64371;47.566;19.086;2023-02-22T02:44:48;100398.09;;;7.72;74.73
75759;BME280;64371;47.566;19.086;2023-02-22T02:48:04;100394.91;;;7.65;74.15
75759;BME280;64371;47.566;19.086;2023-02-22T02:51:17;100393.59;;;7.63;74.55
75759;BME280;64371;47.566;19.086;2023-02-22T02:54:29;100390.97;;;7.63;74.45
75759;BME280;64371;47.566;19.086;2023-02-22T02:57:32;100397.78;;;7.69;74.56
75759;BME280;64371;47.566;19.086;2023-02-22T03:00:38;100399.06;;;7.61;75.06
75759;BME280;64371;47.566;19.086;2023-02-22T03:07:50;100401.22;;;7.74;74.77
75759;BME280;64371;47.566;19.086;2023-02-22T03:11:09;100404.13;;;7.83;74.14
75759;BME280;64371;47.566;19.086;2023-02-22T03:24:40;100398.13;;;7.97;73.30
75759;BME280;64371;47.566;19.086;2023-02-22T03:27:48;100400.75;;;8.02;73.64
75759;BME280;64371;47.566;19.086;2023-02-22T03:31:01;100403.41;;;8.13;73.12
75759;BME280;64371;47.566;19.086;2023-02-22T03:34:27;100402.38;;;8.29;72.45
75759;BME280;64371;47.566;19.086;2023-02-22T03:37:38;100412.66;;;8.30;72.24
75759;BME280;64371;47.566;19.086;2023-02-22T03:40:45;100397.13;;;8.34;72.80
75759;BME280;64371;47.566;19.086;2023-02-22T03:44:05;100394.50;;;8.34;72.52
75759;BME280;64371;47.566;19.086;2023-02-22T03:47:26;100406.09;;;8.33;72.71
75759;BME280;64371;47.566;19.086;2023-02-22T03:50:42;100403.19;;;8.29;72.59
75759;BME280;64371;47.566;19.086;2023-02-22T03:53:48;100410.25;;;8.29;73.18
75759;BME280;64371;47.566;19.086;2023-02-22T03:56:57;100422.88;;;8.27;72.90
75759;BME280;64371;47.566;19.086;2023-02-22T04:00:11;100421.53;;;8.24;72.74
75759;BME280;64371;47.566;19.086;2023-02-22T04:03:14;100422.59;;;8.23;72.65
75759;BME280;64371;47.566;19.086;2023-02-22T04:06:20;100419.41;;;8.21;72.68
75759;BME280;64371;47.566;19.086;2023-02-22T04:09:36;100417.88;;;8.25;73.06
75759;BME280;64371;47.566;19.086;2023-02-22T04:12:52;100426.25;;;8.12;73.15
75759;BME280;64371;47.566;19.086;2023-02-22T04:16:00;100427.53;;;7.99;73.64
75759;BME280;64371;47.566;19.086;2023-02-22T04:19:05;100435.63;;;7.88;74.39
75759;BME280;64371;47.566;19.086;2023-02-22T04:22:12;100433.00;;;7.88;74.37
75759;BME280;64371;47.566;19.086;2023-02-22T04:25:23;100430.66;;;7.86;74.41
75759;BME280;64371;47.566;19.086;2023-02-22T04:28:31;100429.03;;;7.75;75.15
75759;BME280;64371;47.566;19.086;2023-02-22T04:31:49;100427.91;;;7.56;75.84
75759;BME280;64371;47.566;19.086;2023-02-22T04:34:54;100431.06;;;7.53;75.85
75759;BME280;64371;47.566;19.086;2023-02-22T04:38:01;100414.22;;;7.44;76.25
75759;BME280;64371;47.566;19.086;2023-02-22T04:41:06;100425.56;;;7.55;75.79
75759;BME280;64371;47.566;19.086;2023-02-22T04:44:12;100427.13;;;7.51;76.01
75759;BME280;64371;47.566;19.086;2023-02-22T04:47:27;100426.81;;;7.42;76.33
75759;BME280;64371;47.566;19.086;2023-02-22T04:50:30;100429.13;;;7.28;77.21
75759;BME280;64371;47.566;19.086;2023-02-22T04:53:36;100423.00;;;7.13;77.47
75759;BME280;64371;47.566;19.086;2023-02-22T04:56:54;100427.22;;;7.19;77.22
75759;BME280;64371;47.566;19.086;2023-02-22T05:00:00;100417.72;;;7.08;77.80
75759;BME280;64371;47.566;19.086;2023-02-22T05:03:09;100432.44;;;7.14;78.10
75759;BME280;64371;47.566;19.086;2023-02-22T05:06:20;100429.84;;;7.19;77.53
75759;BME280;64371;47.566;19.086;2023-02-22T05:09:32;100435.53;;;7.06;78.51
75759;BME280;64371;47.566;19.086;2023-02-22T05:12:45;100439.06;;;7.26;76.99
75759;BME280;64371;47.566;19.086;2023-02-22T05:16:09;100433.25;;;7.14;77.97
75759;BME280;64371;47.566;19.086;2023-02-22T05:19:12;100439.47;;;7.08;77.80
75759;BME280;64371;47.566;19.086;2023-02-22T05:22:17;100437.50;;;7.25;77.29
75759;BME280;64371;47.566;19.086;2023-02-22T05:25:23;100452.19;;;7.26;77.20
75759;BME280;64371;47.566;19.086;2023-02-22T05:28:26;100451.81;;;7.13;78.38
75759;BME280;64371;47.566;19.086;2023-02-22T05:31:30;100450.13;;;6.92;78.89
75759;BME280;64371;47.566;19.086;2023-02-22T05:38:04;100455.25;;;6.77;79.36
75759;BME280;64371;47.566;19.086;2023-02-22T05:41:12;100456.88;;;6.83;79.79
75759;BME280;64371;47.566;19.086;2023-02-22T05:44:15;100463.19;;;6.87;79.67
75759;BME280;64371;47.566;19.086;2023-02-22T05:47:29;100471.41;;;7.00;78.45
75759;BME280;64371;47.566;19.086;2023-02-22T05:50:37;100467.97;;;6.95;78.71
75759;BME280;64371;47.566;19.086;2023-02-22T05:53:44;100482.97;;;7.04;79.06
75759;BME280;64371;47.566;19.086;2023-02-22T05:57:06;100498.84;;;7.29;78.39
75759;BME280;64371;47.566;19.086;2023-02-22T06:00:23;100500.50;;;7.41;77.18
75759;BME280;64371;47.566;19.086;2023-02-22T06:03:30;100502.13;;;7.52;76.65
75759;BME280;64371;47.566;19.086;2023-02-22T06:06:39;100512.91;;;7.55;77.07
75759;BME280;64371;47.566;19.086;2023-02-22T06:09:50;100506.34;;;7.53;77.10
75759;BME280;64371;47.566;19.086;2023-02-22T06:12:55;100504.53;;;7.58;77.19
75759;BME280;64371;47.566;19.086;2023-02-22T06:16:07;100510.66;;;7.79;75.71
75759;BME280;64371;47.566;19.086;2023-02-22T06:19:16;100509.97;;;7.98;75.03
75759;BME280;64371;47.566;19.086;2023-02-22T06:22:23;100514.22;;;8.15;74.66
75759;BME280;64371;47.566;19.086;2023-02-22T06:25:31;100514.56;;;8.38;73.80
75759;BME280;64371;47.566;19.086;2023-02-22T06:28:39;100521.41;;;8.44;73.63
75759;BME280;64371;47.566;19.086;2023-02-22T06:31:45;100520.91;;;8.47;73.47
75759;BME280;64371;47.566;19.086;2023-02-22T06:34:49;100526.69;;;8.54;73.28
75759;BME280;64371;47.566;19.086;2023-02-22T06:37:56;100521.44;;;8.54;73.19
75759;BME280;64371;47.566;19.086;2023-02-22T06:41:04;100519.56;;;8.60;73.12
75759;BME280;64371;47.566;19.086;2023-02-22T06:44:13;100523.00;;;8.65;73.17
75759;BME280;64371;47.566;19.086;2023-02-22T06:47:24;100515.94;;;8.71;72.66
75759;BME280;64371;47.566;19.086;2023-02-22T06:50:29;100523.56;;;8.93;71.79
75759;BME280;64371;47.566;19.086;2023-02-22T06:53:36;100530.09;;;9.20;71.09
75759;BME280;64371;47.566;19.086;2023-02-22T06:56:48;100525.31;;;9.48;69.94
75759;BME280;64371;47.566;19.086;2023-02-22T07:00:03;100527.53;;;9.99;67.73
75759;BME280;64371;47.566;19.086;2023-02-22T07:03:12;100528.56;;;10.57;65.80
75759;BME280;64371;47.566;19.086;2023-02-22T07:06:27;100525.66;;;11.21;63.75
75759;BME280;64371;47.566;19.086;2023-02-22T07:09:38;100534.06;;;11.81;61.99
75759;BME280;64371;47.566;19.086;2023-02-22T07:12:48;100544.53;;;12.28;60.13
75759;BME280;64371;47.566;19.086;2023-02-22T07:16:00;100536.84;;;12.32;59.56
75759;BME280;64371;47.566;19.086;2023-02-22T07:19:16;100539.13;;;12.38;59.64
75759;BME280;64371;47.566;19.086;2023-02-22T07:22:19;100535.91;;;12.79;58.41
75759;BME280;64371;47.566;19.086;2023-02-22T07:25:30;100530.75;;;12.69;57.92
75759;BME280;64371;47.566;19.086;2023-02-22T07:28:39;100530.13;;;13.09;57.10
75759;BME280;64371;47.566;19.086;2023-02-22T07:31:47;100531.75;;;12.35;59.19
75759;BME280;64371;47.566;19.086;2023-02-22T07:34:51;100530.72;;;12.87;57.52
75759;BME280;64371;47.566;19.086;2023-02-22T07:37:59;100533.81;;;13.40;56.02
75759;BME280;64371;47.566;19.086;2023-02-22T07:41:32;100535.50;;;13.90;54.94
75759;BME280;64371;47.566;19.086;2023-02-22T07:44:48;100543.06;;;13.56;55.59
75759;BME280;64371;47.566;19.086;2023-02-22T07:47:54;100535.72;;;12.89;57.33
75759;BME280;64371;47.566;19.086;2023-02-22T07:51:00;100540.34;;;11.85;60.69
75759;BME280;64371;47.566;19.086;2023-02-22T07:54:14;100535.91;;;12.41;59.32
75759;BME280;64371;47.566;19.086;2023-02-22T07:57:16;100534.09;;;12.93;57.95
75759;BME280;64371;47.566;19.086;2023-02-22T08:00:28;100535.22;;;13.51;56.14
75759;BME280;64371;47.566;19.086;2023-02-22T08:03:37;100535.09;;;13.43;56.35
75759;BME280;64371;47.566;19.086;2023-02-22T08:06:42;100528.53;;;13.81;54.77
75759;BME280;64371;47.566;19.086;2023-02-22T08:09:55;100534.16;;;13.79;55.07
75759;BME280;64371;47.566;19.086;2023-02-22T08:13:08;100540.22;;;13.93;55.05
75759;BME280;64371;47.566;19.086;2023-02-22T08:16:15;100534.88;;;14.34;53.74
75759;BME280;64371;47.566;19.086;2023-02-22T08:19:30;100531.22;;;14.44;53.30
75759;BME280;64371;47.566;19.086;2023-02-22T08:22:44;100536.41;;;14.49;53.24
75759;BME280;64371;47.566;19.086;2023-02-22T08:25:50;100534.25;;;14.95;51.44
75759;BME280;64371;47.566;19.086;2023-02-22T08:28:56;100535.59;;;15.37;50.66
75759;BME280;64371;47.566;19.086;2023-02-22T08:32:13;100527.00;;;14.87;51.43
75759;BME280;64371;47.566;19.086;2023-02-22T08:35:21;100535.72;;;15.32;51.00
75759;BME280;64371;47.566;19.086;2023-02-22T08:38:42;100538.94;;;15.90;49.39
75759;BME280;64371;47.566;19.086;2023-02-22T08:41:54;100532.31;;;15.79;49.19
75759;BME280;64371;47.566;19.086;2023-02-22T08:45:04;100533.47;;;14.95;50.98
75759;BME280;64371;47.566;19.086;2023-02-22T08:48:13;100536.25;;;14.32;52.93
75759;BME280;64371;47.566;19.086;2023-02-22T08:51:18;100528.25;;;13.82;55.15
75759;BME280;64371;47.566;19.086;2023-02-22T08:54:24;100534.53;;;13.86;54.64
75759;BME280;64371;47.566;19.086;2023-02-22T08:57:37;100531.59;;;13.61;55.87
75759;BME280;64371;47.566;19.086;2023-02-22T09:00:50;100542.69;;;13.63;55.21
75759;BME280;64371;47.566;19.086;2023-02-22T09:03:55;100545.06;;;13.18;57.08
75759;BME280;64371;47.566;19.086;2023-02-22T09:07:02;100536.66;;;13.30;56.79
75759;BME280;64371;47.566;19.086;2023-02-22T09:10:21;100538.59;;;12.92;57.85
75759;BME280;64371;47.566;19.086;2023-02-22T09:13:29;100538.13;;;13.04;57.51
75759;BME280;64371;47.566;19.086;2023-02-22T09:16:46;100545.06;;;12.68;58.83
75759;BME280;64371;47.566;19.086;2023-02-22T09:20:00;100543.38;;;12.90;58.29
75759;BME280;64371;47.566;19.086;2023-02-22T09:23:10;100542.47;;;12.81;58.62
75759;BME280;64371;47.566;19.086;2023-02-22T09:26:24;100545.25;;;12.90;58.64
75759;BME280;64371;47.566;19.086;2023-02-22T09:29:31;100540.50;;;12.54;58.75
75759;BME280;64371;47.566;19.086;2023-02-22T09:32:37;100540.22;;;12.56;59.50
75759;BME280;64371;47.566;19.086;2023-02-22T09:35:48;100534.63;;;12.57;59.29
75759;BME280;64371;47.566;19.086;2023-02-22T09:38:56;100542.78;;;12.61;59.30
75759;BME280;64371;47.566;19.086;2023-02-22T09:42:21;100541.53;;;12.72;58.57
75759;BME280;64371;47.566;19.086;2023-02-22T09:52:32;100532.22;;;12.93;57.76
75759;BME280;64371;47.566;19.086;2023-02-22T09:55:50;100527.06;;;13.34;56.68
75759;BME280;64371;47.566;19.086;2023-02-22T09:59:04;100524.31;;;13.39;56.21
75759;BME280;64371;47.566;19.086;2023-02-22T10:02:25;100525.81;;;13.72;55.39
75759;BME280;64371;47.566;19.086;2023-02-22T10:05:35;100525.78;;;14.00;54.45
75759;BME280;64371;47.566;19.086;2023-02-22T10:08:42;100522.25;;;13.90;55.13
75759;BME280;64371;47.566;19.086;2023-02-22T10:12:14;100516.88;;;13.68;55.97
75759;BME280;64371;47.566;19.086;2023-02-22T10:19:10;100524.72;;;13.73;55.94
75759;BME280;64371;47.566;19.086;2023-02-22T10:22:47;100522.94;;;13.69;56.11
75759;BME280;64371;47.566;19.086;2023-02-22T10:26:19;100523.75;;;13.69;55.45
75759;BME280;64371;47.566;19.086;2023-02-22T10:33:00;100510.88;;;13.49;56.55
75759;BME280;64371;47.566;19.086;2023-02-22T10:36:16;100506.63;;;13.35;56.97
75759;BME280;64371;47.566;19.086;2023-02-22T10:39:35;100508.72;;;13.38;57.15
75759;BME280;64371;47.566;19.086;2023-02-22T10:42:40;100508.78;;;13.19;57.77
75759;BME280;64371;47.566;19.086;2023-02-22T10:45:55;100512.16;;;13.38;56.86
75759;BME280;64371;47.566;19.086;2023-02-22T10:49:10;100499.78;;;13.20;56.75
75759;BME280;64371;47.566;19.086;2023-02-22T10:55:31;100490.88;;;13.29;56.71
75759;BME280;64371;47.566;19.086;2023-02-22T10:58:42;100494.03;;;13.59;55.71
75759;BME280;64371;47.566;19.086;2023-02-22T11:05:37;100490.84;;;13.84;55.08
75759;BME280;64371;47.566;19.086;2023-02-22T11:08:47;100489.38;;;13.91;54.20
75759;BME280;64371;47.566;19.086;2023-02-22T11:12:18;100479.56;;;13.78;54.95
75759;BME280;64371;47.566;19.086;2023-02-22T11:15:28;100476.50;;;13.98;53.90
75759;BME280;64371;47.566;19.086;2023-02-22T11:18:36;100474.66;;;13.85;54.63
75759;BME280;64371;47.566;19.086;2023-02-22T11:21:42;100476.53;;;13.85;55.39
75759;BME280;64371;47.566;19.086;2023-02-22T11:25:07;100472.41;;;13.92;55.62
75759;BME280;64371;47.566;19.086;2023-02-22T11:28:28;100465.47;;;14.05;54.90
75759;BME280;64371;47.566;19.086;2023-02-22T11:31:44;100473.00;;;13.89;55.25
75759;BME280;64371;47.566;19.086;2023-02-22T11:35:17;100471.91;;;13.09;57.53
75759;BME280;64371;47.566;19.086;2023-02-22T11:38:27;100466.31;;;13.10;57.83
75759;BME280;64371;47.566;19.086;2023-02-22T11:41:34;100465.25;;;13.25;57.23
75759;BME280;64371;47.566;19.086;2023-02-22T11:44:38;100464.75;;;13.09;57.38
75759;BME280;64371;47.566;19.086;2023-02-22T11:47:57;100464.28;;;13.07;57.22
75759;BME280;64371;47.566;19.086;2023-02-22T11:51:34;100465.56;;;13.10;56.97
75759;BME280;64371;47.566;19.086;2023-02-22T12:04:54;100464.75;;;13.09;58.29
75759;BME280;64371;47.566;19.086;2023-02-22T12:12:17;100451.81;;;13.35;57.48
75759;BME280;64371;47.566;19.086;2023-02-22T12:15:41;100447.91;;;13.46;56.97
75759;BME280;64371;47.566;19.086;2023-02-22T12:19:07;100450.09;;;13.44;56.83
75759;BME280;64371;47.566;19.086;2023-02-22T12:22:21;100447.41;;;13.58;56.72
75759;BME280;64371;47.566;19.086;2023-02-22T12:25:35;100444.66;;;13.63;56.61
75759;BME280;64371;47.566;19.086;2023-02-22T12:32:10;100437.72;;;13.53;56.75
75759;BME280;64371;47.566;19.086;2023-02-22T12:35:28;100436.63;;;13.54;55.99
75759;BME280;64371;47.566;19.086;2023-02-22T12:38:43;100434.94;;;13.45;55.87
75759;BME280;64371;47.566;19.086;2023-02-22T12:41:53;100433.00;;;13.50;56.11
75759;BME280;64371;47.566;19.086;2023-02-22T12:45:03;100435.34;;;13.65;55.84
75759;BME280;64371;47.566;19.086;2023-02-22T12:48:24;100427.47;;;13.74;55.29
75759;BME280;64371;47.566;19.086;2023-02-22T12:52:01;100424.59;;;13.84;55.05
75759;BME280;64371;47.566;19.086;2023-02-22T12:55:31;100421.75;;;13.94;54.87
75759;BME280;64371;47.566;19.086;2023-02-22T12:58:55;100409.44;;;13.98;53.46
75759;BME280;64371;47.566;19.086;2023-02-22T13:05:25;100418.88;;;14.26;53.55
75759;BME280;64371;47.566;19.086;2023-02-22T13:16:15;100411.41;;;13.70;55.46
75759;BME280;64371;47.566;19.086;2023-02-22T13:26:20;100417.31;;;13.40;56.79
75759;BME280;64371;47.566;19.086;2023-02-22T13:29:37;100400.44;;;13.36;56.91
75759;BME280;64371;47.566;19.086;2023-02-22T13:56:56;100410.75;;;13.24;57.58
75759;BME280;64371;47.566;19.086;2023-02-22T14:06:43;100420.44;;;13.28;56.97
75759;BME280;64371;47.566;19.086;2023-02-22T14:09:49;100412.00;;;13.40;57.04
75759;BME280;64371;47.566;19.086;2023-02-22T14:13:05;100407.03;;;13.39;56.86
75759;BME280;64371;47.566;19.086;2023-02-22T14:16:34;100404.66;;;13.37;57.35
75759;BME280;64371;47.566;19.086;2023-02-22T14:19:40;100406.63;;;13.18;58.40
75759;BME280;64371;47.566;19.086;2023-02-22T14:22:49;100400.56;;;13.17;58.33
75759;BME280;64371;47.566;19.086;2023-02-22T14:25:53;100405.31;;;13.02;58.63
75759;BME280;64371;47.566;19.086;2023-02-22T14:32:34;100407.75;;;12.85;59.33
75759;BME280;64371;47.566;19.086;2023-02-22T14:35:50;100399.63;;;12.95;59.22
75759;BME280;64371;47.566;19.086;2023-02-22T14:38:58;100409.78;;;12.74;59.76
75759;BME280;64371;47.566;19.086;2023-02-22T14:42:23;100408.00;;;12.70;60.10
75759;BME280;64371;47.566;19.086;2023-02-22T14:45:35;100406.69;;;12.53;60.54
75759;BME280;64371;47.566;19.086;2023-02-22T14:48:48;100411.25;;;12.67;59.92
75759;BME280;64371;47.566;19.086;2023-02-22T14:52:03;100403.91;;;12.77;59.98
75759;BME280;64371;47.566;19.086;2023-02-22T14:55:24;100411.94;;;12.72;60.01
75759;BME280;64371;47.566;19.086;2023-02-22T14:58:47;100407.25;;;12.83;59.70
75759;BME280;64371;47.566;19.086;2023-02-22T15:02:05;100405.84;;;12.72;59.90
75759;BME280;64371;47.566;19.086;2023-02-22T15:05:14;100403.00;;;12.68;58.60
75759;BME280;64371;47.566;19.086;2023-02-22T15:08:38;100404.00;;;12.72;57.47
75759;BME280;64371;47.566;19.086;2023-02-22T15:11:50;100403.50;;;12.70;57.49
75759;BME280;64371;47.566;19.086;2023-02-22T15:15:31;100393.81;;;12.65;57.48
75759;BME280;64371;47.566;19.086;2023-02-22T15:18:41;100403.19;;;12.72;57.66
75759;BME280;64371;47.566;19.086;2023-02-22T15:21:55;100399.09;;;12.65;57.85
75759;BME280;64371;47.566;19.086;2023-02-22T15:25:08;100397.56;;;12.46;58.42
75759;BME280;64371;47.566;19.086;2023-02-22T15:28:31;100397.66;;;12.41;58.55
75759;BME280;64371;47.566;19.086;2023-02-22T15:31:54;100401.81;;;12.28;59.16
75759;BME280;64371;47.566;19.086;2023-02-22T15:35:30;100393.28;;;12.18;59.31
75759;BME280;64371;47.566;19.086;2023-02-22T15:38:37;100400.06;;;12.05;59.55
75759;BME280;64371;47.566;19.086;2023-02-22T15:41:45;100396.34;;;12.06;60.06
75759;BME280;64371;47.566;19.086;2023-02-22T15:44:50;100394.63;;;12.15;59.49
75759;BME280;64371;47.566;19.086;2023-02-22T15:48:00;100392.25;;;12.14;59.45
75759;BME280;64371;47.566;19.086;2023-02-22T15:51:11;100402.06;;;11.94;60.16
75759;BME280;64371;47.566;19.086;2023-02-22T15:54:29;100395.72;;;11.77;61.04
75759;BME280;64371;47.566;19.086;2023-02-22T15:57:33;100387.56;;;11.73;60.83
75759;BME280;64371;47.566;19.086;2023-02-22T16:00:58;100389.75;;;11.66;61.47
75759;BME280;64371;47.566;19.086;2023-02-22T16:04:05;100391.19;;;11.77;60.77
75759;BME280;64371;47.566;19.086;2023-02-22T16:07:12;100399.84;;;11.83;60.52
75759;BME280;64371;47.566;19.086;2023-02-22T16:10:42;100392.91;;;11.68;60.99
75759;BME280;64371;47.566;19.086;2023-02-22T16:14:06;100395.56;;;11.45;61.56
75759;BME280;64371;47.566;19.086;2023-02-22T16:20:32;100393.19;;;11.67;62.41
75759;BME280;64371;47.566;19.086;2023-02-22T16:23:48;100403.31;;;11.60;62.44
75759;BME280;64371;47.566;19.086;2023-02-22T16:27:13;100401.63;;;11.69;62.73
75759;BME280;64371;47.566;19.086;2023-02-22T16:34:09;100416.72;;;11.63;63.00
75759;BME280;64371;47.566;19.086;2023-02-22T16:37:22;100410.44;;;11.59;62.58
75759;BME280;64371;47.566;19.086;2023-02-22T16:40:35;100420.00;;;11.55;62.52
75759;BME280;64371;47.566;19.086;2023-02-22T16:43:46;100406.97;;;11.40;62.78
75759;BME280;64371;47.566;19.086;2023-02-22T16:46:58;100419.88;;;11.42;62.17
75759;BME280;64371;47.566;19.086;2023-02-22T16:50:04;100415.31;;;11.28;62.31
75759;BME280;64371;47.566;19.086;2023-02-22T16:53:11;100426.91;;;11.27;62.14
75759;BME280;64371;47.566;19.086;2023-02-22T16:56:17;100427.22;;;11.26;61.73
75759;BME280;64371;47.566;19.086;2023-02-22T16:59:37;100428.34;;;11.39;60.80
75759;BME280;64371;47.566;19.086;2023-02-22T17:02:40;100424.44;;;11.36;61.24
75759;BME280;64371;47.566;19.086;2023-02-22T17:06:04;100424.44;;;11.12;60.85
75759;BME280;64371;47.566;19.086;2023-02-22T17:09:13;100427.69;;;11.04;60.78
75759;BME280;64371;47.566;19.086;2023-02-22T17:12:20;100418.59;;;10.92;61.50
75759;BME280;64371;47.566;19.086;2023-02-22T17:15:29;100424.91;;;10.91;61.17
75759;BME280;64371;47.566;19.086;2023-02-22T17:18:41;100427.94;;;10.79;61.64
75759;BME280;64371;47.566;19.086;2023-02-22T17:21:54;100432.66;;;10.82;61.28
75759;BME280;64371;47.566;19.086;2023-02-22T17:25:15;100428.56;;;10.66;61.79
75759;BME280;64371;47.566;19.086;2023-02-22T17:28:24;100432.47;;;10.74;61.51
75759;BME280;64371;47.566;19.086;2023-02-22T17:31:31;100431.16;;;10.71;60.36
75759;BME280;64371;47.566;19.086;2023-02-22T17:34:37;100428.69;;;10.56;60.11
75759;BME280;64371;47.566;19.086;2023-02-22T17:37:44;100429.34;;;10.38;61.42
75759;BME280;64371;47.566;19.086;2023-02-22T17:41:18;100431.63;;;10.06;62.58
75759;BME280;64371;47.566;19.086;2023-02-22T17:44:28;100434.31;;;9.95;62.06
75759;BME280;64371;47.566;19.086;2023-02-22T17:47:33;100433.91;;;9.78;62.89
75759;BME280;64371;47.566;19.086;2023-02-22T17:50:50;100428.13;;;9.71;63.30
75759;BME280;64371;47.566;19.086;2023-02-22T17:53:55;100433.47;;;9.56;64.91
75759;BME280;64371;47.566;19.086;2023-02-22T17:57:04;100436.63;;;9.53;65.16
75759;BME280;64371;47.566;19.086;2023-02-22T18:00:10;100439.53;;;9.52;65.14
75759;BME280;64371;47.566;19.086;2023-02-22T18:03:19;100434.78;;;9.59;65.14
75759;BME280;64371;47.566;19.086;2023-02-22T18:06:30;100429.78;;;9.47;64.89
75759;BME280;64371;47.566;19.086;2023-02-22T18:09:37;100424.59;;;9.37;65.42
75759;BME280;64371;47.566;19.086;2023-02-22T18:12:42;100432.19;;;9.44;64.80
75759;BME280;64371;47.566;19.086;2023-02-22T18:15:45;100428.00;;;9.32;65.04
75759;BME280;64371;47.566;19.086;2023-02-22T18:18:48;100427.25;;;9.32;64.92
75759;BME280;64371;47.566;19.086;2023-02-22T18:21:54;100422.00;;;9.27;64.84
75759;BME280;64371;47.566;19.086;2023-02-22T18:25:02;100425.38;;;9.32;63.70
75759;BME280;64371;47.566;19.086;2023-02-22T18:28:10;100436.75;;;9.13;63.98
75759;BME280;64371;47.566;19.086;2023-02-22T18:31:14;100430.94;;;9.16;62.79
75759;BME280;64371;47.566;19.086;2023-02-22T18:34:23;100425.97;;;9.14;62.45
75759;BME280;64371;47.566;19.086;2023-02-22T18:37:31;100422.22;;;9.30;61.40
75759;BME280;64371;47.566;19.086;2023-02-22T18:40:37;100428.38;;;9.01;62.35
75759;BME280;64371;47.566;19.086;2023-02-22T18:43:44;100442.34;;;8.76;63.79
75759;BME280;64371;47.566;19.086;2023-02-22T18:46:59;100438.13;;;8.60;64.54
75759;BME280;64371;47.566;19.086;2023-02-22T18:50:12;100444.69;;;8.67;64.93
75759;BME280;64371;47.566;19.086;2023-02-22T18:53:30;100443.66;;;8.53;65.67